Stadt Koln — V2CP8 — position and weather

sailwx.info

Track history (hours):
 
Tides and Currents Weather Stations Pressure Air Temp Water Temp Dewpoint Dewpoint Depression Visibility Wind Speed Wind Dir Waves Ship Positions

Stadt Koln

Last reported at 2018-Jun-16 02:56 UTC. Time now 2018-Jun-19 12:27 UTC.
Position S 24°10' W 045°60'.

Length 223 m; draft 11.1 m.

Type: Cargo ship. MMSI: 305075000.

Date/timePositionNaut miles runAvg speedWind from/ knotsBaromVisibWave heightAir tempDewpointWater temp
2018-Jun-16 02:56S 24°10' W 045°60'819.3
2018-Jun-16 02:30S 24°06' W 046°08'816.6
2018-Jun-16 02:01S 24°05' W 046°17'5 9.8
2018-Jun-16 01:30S 24°01' W 046°21'3 7.0
2018-Jun-16 01:00S 23°59' W 046°18'1 1.6
2018-Jun-16 00:26S 23°58' W 046°18'0 0.0
2018-Jun-15 23:50S 23°58' W 046°18'0 0.0
2018-Jun-15 21:32S 23°58' W 046°18'0 0.0
2018-Jun-15 21:20S 23°58' W 046°18'0 0.0
2018-Jun-15 20:56S 23°58' W 046°18'0 0.0
2018-Jun-15 19:38S 23°58' W 046°18'0 0.0
2018-Jun-15 19:20S 23°58' W 046°18'0 0.0
2018-Jun-15 18:56S 23°58' W 046°18'0 0.0
2018-Jun-15 17:38S 23°58' W 046°18'0 0.0
2018-Jun-15 12:29S 23°58' W 046°18'0 0.0
2018-Jun-15 11:50S 23°58' W 046°18'0 0.0
2018-Jun-15 11:26S 23°58' W 046°18'0 0.0
2018-Jun-15 10:50S 23°58' W 046°18'0 0.0
2018-Jun-15 10:02S 23°58' W 046°18'0 0.0
2018-Jun-15 08:38S 23°58' W 046°18'0 0.0
2018-Jun-15 08:08S 23°58' W 046°18'0 0.0
2018-Jun-15 07:50S 23°58' W 046°18'0 0.0
2018-Jun-15 07:14S 23°58' W 046°18'0 0.0
2018-Jun-15 06:14S 23°58' W 046°18'0 0.0
2018-Jun-15 05:56S 23°58' W 046°18'0 0.0
2018-Jun-15 05:20S 23°58' W 046°18'0 0.0
2018-Jun-15 04:05S 23°58' W 046°18'0 0.1
2018-Jun-15 03:56S 23°58' W 046°18'0 0.0
2018-Jun-15 03:26S 23°58' W 046°18'0 0.0
2018-Jun-15 02:56S 23°58' W 046°18'0 0.0
2018-Jun-15 02:29S 23°58' W 046°18'0 0.0
2018-Jun-15 00:56S 23°58' W 046°18'0 0.0
2018-Jun-15 00:08S 23°58' W 046°18'0 0.0
2018-Jun-14 23:56S 23°58' W 046°18'1 1.6
2018-Jun-14 23:23S 23°59' W 046°17'3 7.8
2018-Jun-14 22:59S 24°01' W 046°20'3 6.3
2018-Jun-14 22:30S 24°04' W 046°22'5 9.5
2018-Jun-14 22:00S 24°08' W 046°25'1 1.6
2018-Jun-14 21:30S 24°07' W 046°25'0 0.2
2018-Jun-14 21:00S 24°07' W 046°25'0 0.3
2018-Jun-14 20:30S 24°07' W 046°25'0 0.8
2018-Jun-14 20:00S 24°08' W 046°25'0 0.5
2018-Jun-14 19:30S 24°08' W 046°25'1 2.5
2018-Jun-14 19:00S 24°08' W 046°24'612.6
2018-Jun-14 18:30S 24°14' W 046°27'612.7
2018-Jun-14 18:00S 24°20' W 046°29'713.3
2018-Jun-14 17:30S 24°26' W 046°32'713.2
2018-Jun-14 16:59S 24°32' W 046°36'613.2
2018-Jun-14 16:30S 24°36' W 046°41'  
Track history (hours):
 
Tides and Currents Weather Stations Pressure Air Temp Water Temp Dewpoint Dewpoint Depression Visibility Wind Speed Wind Dir Waves Ship Positions

Stadt Koln

Last reported at 2018-Jun-16 02:56 UTC. Time now 2018-Jun-19 12:27 UTC.
Position S 24°10' W 045°60'.

Length 223 m; draft 11.1 m.

Type: Cargo ship. MMSI: 305075000.

Date/timePositionNaut miles runAvg speedWind from/ knotsBaromVisibWave heightAir tempDewpointWater temp
2018-Jun-16 02:56S 24°10' W 045°60'819.3
2018-Jun-16 02:30S 24°06' W 046°08'816.6
2018-Jun-16 02:01S 24°05' W 046°17'5 9.8
2018-Jun-16 01:30S 24°01' W 046°21'3 7.0
2018-Jun-16 01:00S 23°59' W 046°18'1 1.6
2018-Jun-16 00:26S 23°58' W 046°18'0 0.0
2018-Jun-15 23:50S 23°58' W 046°18'0 0.0
2018-Jun-15 21:32S 23°58' W 046°18'0 0.0
2018-Jun-15 21:20S 23°58' W 046°18'0 0.0
2018-Jun-15 20:56S 23°58' W 046°18'0 0.0
2018-Jun-15 19:38S 23°58' W 046°18'0 0.0
2018-Jun-15 19:20S 23°58' W 046°18'0 0.0
2018-Jun-15 18:56S 23°58' W 046°18'0 0.0
2018-Jun-15 17:38S 23°58' W 046°18'0 0.0
2018-Jun-15 12:29S 23°58' W 046°18'0 0.0
2018-Jun-15 11:50S 23°58' W 046°18'0 0.0
2018-Jun-15 11:26S 23°58' W 046°18'0 0.0
2018-Jun-15 10:50S 23°58' W 046°18'0 0.0
2018-Jun-15 10:02S 23°58' W 046°18'0 0.0
2018-Jun-15 08:38S 23°58' W 046°18'0 0.0
2018-Jun-15 08:08S 23°58' W 046°18'0 0.0
2018-Jun-15 07:50S 23°58' W 046°18'0 0.0
2018-Jun-15 07:14S 23°58' W 046°18'0 0.0
2018-Jun-15 06:14S 23°58' W 046°18'0 0.0
2018-Jun-15 05:56S 23°58' W 046°18'0 0.0
2018-Jun-15 05:20S 23°58' W 046°18'0 0.0
2018-Jun-15 04:05S 23°58' W 046°18'0 0.1
2018-Jun-15 03:56S 23°58' W 046°18'0 0.0
2018-Jun-15 03:26S 23°58' W 046°18'0 0.0
2018-Jun-15 02:56S 23°58' W 046°18'0 0.0
2018-Jun-15 02:29S 23°58' W 046°18'0 0.0
2018-Jun-15 00:56S 23°58' W 046°18'0 0.0
2018-Jun-15 00:08S 23°58' W 046°18'0 0.0
2018-Jun-14 23:56S 23°58' W 046°18'1 1.6
2018-Jun-14 23:23S 23°59' W 046°17'3 7.8
2018-Jun-14 22:59S 24°01' W 046°20'3 6.3
2018-Jun-14 22:30S 24°04' W 046°22'5 9.5
2018-Jun-14 22:00S 24°08' W 046°25'1 1.6
2018-Jun-14 21:30S 24°07' W 046°25'0 0.2
2018-Jun-14 21:00S 24°07' W 046°25'0 0.3
2018-Jun-14 20:30S 24°07' W 046°25'0 0.8
2018-Jun-14 20:00S 24°08' W 046°25'0 0.5
2018-Jun-14 19:30S 24°08' W 046°25'1 2.5
2018-Jun-14 19:00S 24°08' W 046°24'612.6
2018-Jun-14 18:30S 24°14' W 046°27'612.7
2018-Jun-14 18:00S 24°20' W 046°29'713.3
2018-Jun-14 17:30S 24°26' W 046°32'713.2
2018-Jun-14 16:59S 24°32' W 046°36'613.2
2018-Jun-14 16:30S 24°36' W 046°41'  

Dump ship's entire track history